sensor_id;sensor_type;location;lat;lon;timestamp;pressure;altitude;pressure_sealevel;temperature;humidity
72689;BME280;61053;52.166;4.506;2022-09-17T00:01:05;101460.72;;;13.24;69.05
72689;BME280;61053;52.166;4.506;2022-09-17T00:03:32;101459.88;;;13.37;64.74
72689;BME280;61053;52.166;4.506;2022-09-17T00:06:11;101464.81;;;13.43;65.61
72689;BME280;61053;52.166;4.506;2022-09-17T00:08:39;101464.63;;;13.33;65.88
72689;BME280;61053;52.166;4.506;2022-09-17T00:11:15;101483.78;;;13.52;63.66
72689;BME280;61053;52.166;4.506;2022-09-17T00:13:45;101503.75;;;13.48;65.43
72689;BME280;61053;52.166;4.506;2022-09-17T00:16:12;101510.56;;;12.90;71.39
72689;BME280;61053;52.166;4.506;2022-09-17T00:18:38;101512.25;;;12.91;72.55
72689;BME280;61053;52.166;4.506;2022-09-17T00:21:15;101509.78;;;12.75;73.64
72689;BME280;61053;52.166;4.506;2022-09-17T00:23:42;101519.81;;;12.59;73.29
72689;BME280;61053;52.166;4.506;2022-09-17T00:26:07;101504.72;;;12.58;71.92
72689;BME280;61053;52.166;4.506;2022-09-17T00:28:33;101504.81;;;12.56;73.65
72689;BME280;61053;52.166;4.506;2022-09-17T00:30:58;101483.69;;;12.39;74.36
72689;BME280;61053;52.166;4.506;2022-09-17T00:33:24;101480.56;;;12.45;74.57
72689;BME280;61053;52.166;4.506;2022-09-17T00:35:59;101476.63;;;12.63;73.20
72689;BME280;61053;52.166;4.506;2022-09-17T00:38:27;101473.66;;;12.55;74.57
72689;BME280;61053;52.166;4.506;2022-09-17T00:40:53;101472.53;;;12.45;73.44
72689;BME280;61053;52.166;4.506;2022-09-17T00:43:37;101473.66;;;12.55;72.80
72689;BME280;61053;52.166;4.506;2022-09-17T00:46:20;101469.34;;;12.53;70.03
72689;BME280;61053;52.166;4.506;2022-09-17T00:48:52;101476.72;;;12.36;73.62
72689;BME280;61053;52.166;4.506;2022-09-17T00:51:28;101471.06;;;12.41;72.19
72689;BME280;61053;52.166;4.506;2022-09-17T00:54:00;101466.13;;;12.60;73.06
72689;BME280;61053;52.166;4.506;2022-09-17T00:56:31;101464.00;;;12.53;71.42
72689;BME280;61053;52.166;4.506;2022-09-17T00:59:02;101465.03;;;12.50;69.61
72689;BME280;61053;52.166;4.506;2022-09-17T01:01:28;101471.41;;;12.62;70.68
72689;BME280;61053;52.166;4.506;2022-09-17T01:03:55;101478.34;;;12.52;70.75
72689;BME280;61053;52.166;4.506;2022-09-17T01:06:48;101469.34;;;12.65;70.75
72689;BME280;61053;52.166;4.506;2022-09-17T01:09:52;101474.06;;;12.75;70.89
72689;BME280;61053;52.166;4.506;2022-09-17T01:13:22;101467.00;;;12.74;70.70
72689;BME280;61053;52.166;4.506;2022-09-17T01:15:40;101479.22;;;12.78;69.75
72689;BME280;61053;52.166;4.506;2022-09-17T01:18:23;101474.94;;;12.62;70.37
72689;BME280;61053;52.166;4.506;2022-09-17T01:21:25;101482.00;;;12.63;66.51
72689;BME280;61053;52.166;4.506;2022-09-17T01:27:31;101479.84;;;12.68;65.69
72689;BME280;61053;52.166;4.506;2022-09-17T01:30:16;101473.41;;;12.71;67.36
72689;BME280;61053;52.166;4.506;2022-09-17T01:33:12;101479.34;;;12.76;66.87
72689;BME280;61053;52.166;4.506;2022-09-17T01:38:25;101484.91;;;12.99;65.68
72689;BME280;61053;52.166;4.506;2022-09-17T01:41:03;101480.59;;;12.96;66.03
72689;BME280;61053;52.166;4.506;2022-09-17T01:46:32;101494.78;;;12.98;66.51
72689;BME280;61053;52.166;4.506;2022-09-17T01:49:06;101502.06;;;13.09;65.93
72689;BME280;61053;52.166;4.506;2022-09-17T01:51:39;101507.41;;;13.22;65.37
72689;BME280;61053;52.166;4.506;2022-09-17T01:54:43;101517.28;;;13.08;69.82
72689;BME280;61053;52.166;4.506;2022-09-17T01:57:08;101514.28;;;13.00;69.99
72689;BME280;61053;52.166;4.506;2022-09-17T01:59:43;101515.34;;;12.72;70.56
72689;BME280;61053;52.166;4.506;2022-09-17T02:02:20;101494.44;;;12.77;68.38
72689;BME280;61053;52.166;4.506;2022-09-17T02:05:08;101506.78;;;12.67;70.75
72689;BME280;61053;52.166;4.506;2022-09-17T02:07:52;101505.34;;;12.61;70.27
72689;BME280;61053;52.166;4.506;2022-09-17T02:10:29;101507.53;;;12.69;66.79
72689;BME280;61053;52.166;4.506;2022-09-17T02:13:07;101509.47;;;12.67;65.80
72689;BME280;61053;52.166;4.506;2022-09-17T02:15:47;101511.81;;;12.72;67.26
72689;BME280;61053;52.166;4.506;2022-09-17T02:30:15;101524.25;;;12.73;66.30
72689;BME280;61053;52.166;4.506;2022-09-17T02:32:41;101522.22;;;12.89;65.58
72689;BME280;61053;52.166;4.506;2022-09-17T02:35:08;101514.50;;;12.84;66.06
72689;BME280;61053;52.166;4.506;2022-09-17T02:37:35;101518.78;;;12.87;66.90
72689;BME280;61053;52.166;4.506;2022-09-17T02:40:01;101518.91;;;12.85;67.18
72689;BME280;61053;52.166;4.506;2022-09-17T02:45:36;101511.28;;;12.79;65.35
72689;BME280;61053;52.166;4.506;2022-09-17T02:48:46;101521.56;;;12.73;66.63
72689;BME280;61053;52.166;4.506;2022-09-17T02:51:44;101513.66;;;12.84;67.69
72689;BME280;61053;52.166;4.506;2022-09-17T02:54:41;101514.19;;;12.76;68.67
72689;BME280;61053;52.166;4.506;2022-09-17T02:57:34;101503.47;;;12.76;69.94
72689;BME280;61053;52.166;4.506;2022-09-17T03:00:16;101506.91;;;12.78;68.58
72689;BME280;61053;52.166;4.506;2022-09-17T03:03:00;101505.03;;;12.66;67.83
72689;BME280;61053;52.166;4.506;2022-09-17T03:05:33;101509.44;;;12.80;67.60
72689;BME280;61053;52.166;4.506;2022-09-17T03:08:02;101516.31;;;12.84;67.91
72689;BME280;61053;52.166;4.506;2022-09-17T03:10:28;101505.38;;;12.87;66.89
72689;BME280;61053;52.166;4.506;2022-09-17T03:12:57;101504.97;;;12.93;67.45
72689;BME280;61053;52.166;4.506;2022-09-17T03:15:23;101510.97;;;12.97;68.95
72689;BME280;61053;52.166;4.506;2022-09-17T03:17:48;101508.28;;;12.84;66.93
72689;BME280;61053;52.166;4.506;2022-09-17T03:20:14;101506.66;;;12.94;64.46
72689;BME280;61053;52.166;4.506;2022-09-17T03:22:40;101506.78;;;12.93;64.21
72689;BME280;61053;52.166;4.506;2022-09-17T03:25:06;101534.75;;;13.01;63.72
72689;BME280;61053;52.166;4.506;2022-09-17T03:27:32;101515.75;;;12.66;65.73
72689;BME280;61053;52.166;4.506;2022-09-17T03:29:59;101517.59;;;12.65;66.34
72689;BME280;61053;52.166;4.506;2022-09-17T03:32:24;101507.59;;;12.55;63.93
72689;BME280;61053;52.166;4.506;2022-09-17T03:34:50;101510.09;;;12.58;63.79
72689;BME280;61053;52.166;4.506;2022-09-17T03:37:16;101508.66;;;12.39;64.90
72689;BME280;61053;52.166;4.506;2022-09-17T03:39:41;101503.06;;;12.30;65.92
72689;BME280;61053;52.166;4.506;2022-09-17T03:42:07;101507.81;;;12.52;65.76
72689;BME280;61053;52.166;4.506;2022-09-17T03:44:32;101505.22;;;12.37;68.37
72689;BME280;61053;52.166;4.506;2022-09-17T03:46:57;101508.16;;;12.60;67.99
72689;BME280;61053;52.166;4.506;2022-09-17T03:49:23;101504.91;;;12.55;68.80
72689;BME280;61053;52.166;4.506;2022-09-17T03:51:48;101501.06;;;12.59;66.49
72689;BME280;61053;52.166;4.506;2022-09-17T03:54:14;101509.66;;;12.64;67.07
72689;BME280;61053;52.166;4.506;2022-09-17T03:56:39;101501.84;;;12.74;65.77
72689;BME280;61053;52.166;4.506;2022-09-17T03:59:05;101506.56;;;12.57;65.27
72689;BME280;61053;52.166;4.506;2022-09-17T04:01:31;101501.91;;;12.59;63.92
72689;BME280;61053;52.166;4.506;2022-09-17T04:03:56;101510.41;;;12.53;64.40
72689;BME280;61053;52.166;4.506;2022-09-17T04:06:22;101505.72;;;12.70;64.81
72689;BME280;61053;52.166;4.506;2022-09-17T04:08:47;101505.16;;;12.77;63.39
72689;BME280;61053;52.166;4.506;2022-09-17T04:11:13;101511.81;;;12.72;64.05
72689;BME280;61053;52.166;4.506;2022-09-17T04:13:38;101523.66;;;12.55;63.02
72689;BME280;61053;52.166;4.506;2022-09-17T04:16:04;101514.16;;;12.63;61.74
72689;BME280;61053;52.166;4.506;2022-09-17T04:18:30;101524.91;;;12.76;61.44
72689;BME280;61053;52.166;4.506;2022-09-17T04:20:56;101525.31;;;12.70;59.14
72689;BME280;61053;52.166;4.506;2022-09-17T04:23:21;101523.06;;;12.89;59.82
72689;BME280;61053;52.166;4.506;2022-09-17T04:25:47;101539.38;;;12.74;66.73
72689;BME280;61053;52.166;4.506;2022-09-17T04:28:13;101548.78;;;12.66;68.36
72689;BME280;61053;52.166;4.506;2022-09-17T04:30:38;101565.19;;;12.62;68.61
72689;BME280;61053;52.166;4.506;2022-09-17T04:33:05;101564.28;;;12.49;70.44
72689;BME280;61053;52.166;4.506;2022-09-17T04:35:30;101580.38;;;12.49;69.52
72689;BME280;61053;52.166;4.506;2022-09-17T04:37:57;101567.31;;;12.57;69.42
72689;BME280;61053;52.166;4.506;2022-09-17T04:40:23;101562.38;;;12.51;69.80
72689;BME280;61053;52.166;4.506;2022-09-17T04:42:52;101569.03;;;12.58;71.18
72689;BME280;61053;52.166;4.506;2022-09-17T04:45:19;101563.28;;;12.37;70.38
72689;BME280;61053;52.166;4.506;2022-09-17T04:47:45;101555.81;;;12.15;69.05
72689;BME280;61053;52.166;4.506;2022-09-17T04:50:10;101561.28;;;12.13;69.53
72689;BME280;61053;52.166;4.506;2022-09-17T04:52:41;101568.41;;;12.27;70.66
72689;BME280;61053;52.166;4.506;2022-09-17T04:55:07;101552.34;;;12.27;70.96
72689;BME280;61053;52.166;4.506;2022-09-17T04:57:33;101542.94;;;12.34;73.39
72689;BME280;61053;52.166;4.506;2022-09-17T04:59:59;101546.09;;;12.27;72.54
72689;BME280;61053;52.166;4.506;2022-09-17T05:02:24;101546.69;;;12.17;70.70
72689;BME280;61053;52.166;4.506;2022-09-17T05:04:50;101538.78;;;12.16;71.92
72689;BME280;61053;52.166;4.506;2022-09-17T05:07:15;101539.94;;;12.12;73.12
72689;BME280;61053;52.166;4.506;2022-09-17T05:09:41;101532.06;;;11.96;73.36
72689;BME280;61053;52.166;4.506;2022-09-17T05:12:06;101536.81;;;12.32;72.31
72689;BME280;61053;52.166;4.506;2022-09-17T05:14:33;101541.94;;;12.22;71.25
72689;BME280;61053;52.166;4.506;2022-09-17T05:16:59;101548.75;;;12.14;71.52
72689;BME280;61053;52.166;4.506;2022-09-17T05:19:24;101552.28;;;12.14;70.96
72689;BME280;61053;52.166;4.506;2022-09-17T05:21:50;101548.44;;;12.18;70.58
72689;BME280;61053;52.166;4.506;2022-09-17T05:24:15;101554.56;;;12.20;71.49
72689;BME280;61053;52.166;4.506;2022-09-17T05:26:40;101553.34;;;12.39;71.31
72689;BME280;61053;52.166;4.506;2022-09-17T05:29:06;101561.78;;;12.33;72.95
72689;BME280;61053;52.166;4.506;2022-09-17T05:31:32;101548.38;;;12.33;74.32
72689;BME280;61053;52.166;4.506;2022-09-17T05:34:00;101553.88;;;12.44;71.83
72689;BME280;61053;52.166;4.506;2022-09-17T05:36:25;101546.38;;;12.36;73.35
72689;BME280;61053;52.166;4.506;2022-09-17T05:38:51;101537.19;;;12.53;71.82
72689;BME280;61053;52.166;4.506;2022-09-17T05:41:16;101540.72;;;12.41;72.95
72689;BME280;61053;52.166;4.506;2022-09-17T05:43:42;101541.19;;;12.33;71.94
72689;BME280;61053;52.166;4.506;2022-09-17T05:46:08;101554.81;;;12.30;73.54
72689;BME280;61053;52.166;4.506;2022-09-17T05:48:35;101585.56;;;12.37;69.66
72689;BME280;61053;52.166;4.506;2022-09-17T05:51:00;101596.09;;;12.13;74.34
72689;BME280;61053;52.166;4.506;2022-09-17T05:53:26;101594.97;;;11.60;75.52
72689;BME280;61053;52.166;4.506;2022-09-17T05:55:55;101585.06;;;11.62;76.42
72689;BME280;61053;52.166;4.506;2022-09-17T05:58:21;101582.66;;;11.72;74.85
72689;BME280;61053;52.166;4.506;2022-09-17T06:00:47;101576.25;;;11.60;73.57
72689;BME280;61053;52.166;4.506;2022-09-17T06:03:14;101572.44;;;11.50;77.13
72689;BME280;61053;52.166;4.506;2022-09-17T06:05:42;101567.56;;;11.56;76.88
72689;BME280;61053;52.166;4.506;2022-09-17T06:08:09;101579.91;;;11.59;76.03
72689;BME280;61053;52.166;4.506;2022-09-17T06:10:36;101580.06;;;11.56;76.88
72689;BME280;61053;52.166;4.506;2022-09-17T06:13:02;101580.19;;;11.69;76.69
72689;BME280;61053;52.166;4.506;2022-09-17T06:15:28;101581.13;;;11.68;76.86
72689;BME280;61053;52.166;4.506;2022-09-17T06:17:55;101590.84;;;11.83;76.50
72689;BME280;61053;52.166;4.506;2022-09-17T06:20:21;101610.75;;;11.65;77.52
72689;BME280;61053;52.166;4.506;2022-09-17T06:22:47;101603.09;;;11.73;76.24
72689;BME280;61053;52.166;4.506;2022-09-17T06:25:12;101603.59;;;11.51;76.86
72689;BME280;61053;52.166;4.506;2022-09-17T06:27:39;101608.56;;;11.57;73.60
72689;BME280;61053;52.166;4.506;2022-09-17T06:30:05;101598.50;;;11.60;73.79
72689;BME280;61053;52.166;4.506;2022-09-17T06:32:31;101603.28;;;11.70;73.94
72689;BME280;61053;52.166;4.506;2022-09-17T06:34:57;101603.69;;;11.78;76.06
72689;BME280;61053;52.166;4.506;2022-09-17T06:37:30;101597.00;;;11.71;75.80
72689;BME280;61053;52.166;4.506;2022-09-17T06:39:57;101594.38;;;11.83;77.39
72689;BME280;61053;52.166;4.506;2022-09-17T06:42:26;101596.97;;;11.85;75.81
72689;BME280;61053;52.166;4.506;2022-09-17T06:44:55;101588.94;;;11.85;74.49
72689;BME280;61053;52.166;4.506;2022-09-17T06:47:23;101579.88;;;11.88;76.13
72689;BME280;61053;52.166;4.506;2022-09-17T06:49:49;101586.06;;;12.02;74.06
72689;BME280;61053;52.166;4.506;2022-09-17T06:52:15;101571.91;;;12.00;74.55
72689;BME280;61053;52.166;4.506;2022-09-17T06:54:41;101584.91;;;12.34;73.33
72689;BME280;61053;52.166;4.506;2022-09-17T06:57:07;101590.00;;;12.78;72.00
72689;BME280;61053;52.166;4.506;2022-09-17T06:59:32;101586.56;;;12.89;73.48
72689;BME280;61053;52.166;4.506;2022-09-17T07:01:58;101573.91;;;12.78;72.24
72689;BME280;61053;52.166;4.506;2022-09-17T07:04:23;101588.66;;;12.71;70.42
72689;BME280;61053;52.166;4.506;2022-09-17T07:06:48;101586.50;;;12.63;69.57
72689;BME280;61053;52.166;4.506;2022-09-17T07:09:14;101581.91;;;12.65;67.83
72689;BME280;61053;52.166;4.506;2022-09-17T07:11:39;101592.34;;;12.43;70.81
72689;BME280;61053;52.166;4.506;2022-09-17T07:14:05;101585.31;;;12.55;66.91
72689;BME280;61053;52.166;4.506;2022-09-17T07:16:31;101591.19;;;12.47;64.92
72689;BME280;61053;52.166;4.506;2022-09-17T07:19:02;101593.75;;;12.49;63.48
72689;BME280;61053;52.166;4.506;2022-09-17T07:21:28;101596.59;;;12.60;66.11
72689;BME280;61053;52.166;4.506;2022-09-17T07:23:54;101591.34;;;12.71;64.64
72689;BME280;61053;52.166;4.506;2022-09-17T07:26:19;101587.09;;;12.81;67.38
72689;BME280;61053;52.166;4.506;2022-09-17T07:28:45;101588.84;;;12.95;65.71
72689;BME280;61053;52.166;4.506;2022-09-17T07:31:13;101608.78;;;13.04;67.39
72689;BME280;61053;52.166;4.506;2022-09-17T07:33:40;101607.38;;;12.98;67.45
72689;BME280;61053;52.166;4.506;2022-09-17T07:36:10;101610.69;;;12.89;69.24
72689;BME280;61053;52.166;4.506;2022-09-17T07:38:38;101609.50;;;12.80;69.49
72689;BME280;61053;52.166;4.506;2022-09-17T07:41:10;101602.97;;;12.84;71.19
72689;BME280;61053;52.166;4.506;2022-09-17T07:43:37;101600.91;;;12.75;72.36
72689;BME280;61053;52.166;4.506;2022-09-17T07:46:04;101598.53;;;12.71;72.41
72689;BME280;61053;52.166;4.506;2022-09-17T07:48:32;101602.66;;;12.49;72.76
72689;BME280;61053;52.166;4.506;2022-09-17T07:50:58;101605.94;;;12.40;72.19
72689;BME280;61053;52.166;4.506;2022-09-17T07:53:24;101601.34;;;12.42;72.24
72689;BME280;61053;52.166;4.506;2022-09-17T07:55:53;101598.50;;;12.58;70.93
72689;BME280;61053;52.166;4.506;2022-09-17T07:58:38;101593.09;;;12.85;70.28
72689;BME280;61053;52.166;4.506;2022-09-17T08:01:06;101603.41;;;13.04;70.50
72689;BME280;61053;52.166;4.506;2022-09-17T08:03:35;101600.78;;;13.55;71.18
72689;BME280;61053;52.166;4.506;2022-09-17T08:08:37;101602.31;;;13.46;68.56
72689;BME280;61053;52.166;4.506;2022-09-17T08:13:31;101617.59;;;13.06;68.18
72689;BME280;61053;52.166;4.506;2022-09-17T08:16:02;101619.19;;;13.08;67.21
72689;BME280;61053;52.166;4.506;2022-09-17T08:18:40;101622.00;;;13.07;67.92
72689;BME280;61053;52.166;4.506;2022-09-17T08:21:09;101620.38;;;13.04;66.96
72689;BME280;61053;52.166;4.506;2022-09-17T08:23:38;101620.91;;;13.22;67.59
72689;BME280;61053;52.166;4.506;2022-09-17T08:26:07;101623.75;;;13.34;67.85
72689;BME280;61053;52.166;4.506;2022-09-17T08:28:35;101621.50;;;13.53;68.99
72689;BME280;61053;52.166;4.506;2022-09-17T08:31:04;101613.88;;;13.34;68.29
72689;BME280;61053;52.166;4.506;2022-09-17T08:33:33;101610.66;;;13.29;68.73
72689;BME280;61053;52.166;4.506;2022-09-17T08:36:02;101620.50;;;13.67;67.78
72689;BME280;61053;52.166;4.506;2022-09-17T08:38:29;101615.16;;;13.67;68.96
72689;BME280;61053;52.166;4.506;2022-09-17T08:41:15;101605.94;;;14.08;67.44
72689;BME280;61053;52.166;4.506;2022-09-17T08:46:52;101598.06;;;15.70;60.98
72689;BME280;61053;52.166;4.506;2022-09-17T08:58:29;101640.06;;;14.19;69.79
72689;BME280;61053;52.166;4.506;2022-09-17T09:09:49;101615.56;;;13.86;70.66
72689;BME280;61053;52.166;4.506;2022-09-17T09:12:25;101621.66;;;14.01;72.04
72689;BME280;61053;52.166;4.506;2022-09-17T09:15:05;101618.13;;;14.62;67.40
72689;BME280;61053;52.166;4.506;2022-09-17T09:17:44;101614.63;;;15.08;67.22
72689;BME280;61053;52.166;4.506;2022-09-17T09:20:27;101618.63;;;15.02;67.64
72689;BME280;61053;52.166;4.506;2022-09-17T09:23:14;101623.16;;;15.02;65.64
72689;BME280;61053;52.166;4.506;2022-09-17T09:26:17;101617.53;;;14.45;64.29
72689;BME280;61053;52.166;4.506;2022-09-17T09:29:20;101616.75;;;14.80;65.68
72689;BME280;61053;52.166;4.506;2022-09-17T09:34:39;101615.78;;;14.92;61.46
72689;BME280;61053;52.166;4.506;2022-09-17T09:37:32;101612.31;;;14.79;62.72
72689;BME280;61053;52.166;4.506;2022-09-17T09:40:15;101611.94;;;15.08;61.15
72689;BME280;61053;52.166;4.506;2022-09-17T09:42:52;101619.16;;;15.18;60.32
72689;BME280;61053;52.166;4.506;2022-09-17T09:48:45;101624.81;;;15.38;57.56
72689;BME280;61053;52.166;4.506;2022-09-17T09:51:52;101628.31;;;15.16;60.88
72689;BME280;61053;52.166;4.506;2022-09-17T09:54:27;101630.47;;;14.99;61.66
72689;BME280;61053;52.166;4.506;2022-09-17T09:57:13;101629.38;;;15.02;61.17
72689;BME280;61053;52.166;4.506;2022-09-17T09:59:42;101633.59;;;15.17;60.46
72689;BME280;61053;52.166;4.506;2022-09-17T10:02:09;101618.56;;;15.26;55.56
72689;BME280;61053;52.166;4.506;2022-09-17T10:04:34;101623.22;;;15.24;56.67
72689;BME280;61053;52.166;4.506;2022-09-17T10:07:05;101625.81;;;15.37;56.16
72689;BME280;61053;52.166;4.506;2022-09-17T10:09:34;101624.88;;;15.83;57.13
72689;BME280;61053;52.166;4.506;2022-09-17T10:14:34;101639.53;;;15.68;55.65
72689;BME280;61053;52.166;4.506;2022-09-17T10:22:33;101638.47;;;15.70;57.77
72689;BME280;61053;52.166;4.506;2022-09-17T10:25:03;101635.66;;;16.49;54.61
72689;BME280;61053;52.166;4.506;2022-09-17T10:27:31;101636.59;;;16.59;55.33
72689;BME280;61053;52.166;4.506;2022-09-17T10:30:17;101624.72;;;16.18;55.09
72689;BME280;61053;52.166;4.506;2022-09-17T10:35:38;101626.91;;;17.00;54.68
72689;BME280;61053;52.166;4.506;2022-09-17T10:38:03;101616.63;;;17.15;53.74
72689;BME280;61053;52.166;4.506;2022-09-17T10:40:31;101615.22;;;17.93;47.18
72689;BME280;61053;52.166;4.506;2022-09-17T10:43:20;101612.84;;;19.84;42.56
72689;BME280;61053;52.166;4.506;2022-09-17T10:45:57;101609.28;;;21.18;39.98
72689;BME280;61053;52.166;4.506;2022-09-17T10:48:27;101614.63;;;20.02;41.26
72689;BME280;61053;52.166;4.506;2022-09-17T10:50:57;101613.94;;;21.86;38.12
72689;BME280;61053;52.166;4.506;2022-09-17T10:53:24;101623.22;;;22.10;35.84
72689;BME280;61053;52.166;4.506;2022-09-17T11:10:23;101603.22;;;25.59;29.79
72689;BME280;61053;52.166;4.506;2022-09-17T11:15:55;101601.28;;;24.54;31.75
72689;BME280;61053;52.166;4.506;2022-09-17T11:18:49;101612.56;;;21.48;38.06
72689;BME280;61053;52.166;4.506;2022-09-17T11:36:37;101610.28;;;28.32;24.11
72689;BME280;61053;52.166;4.506;2022-09-17T11:39:20;101601.38;;;28.23;23.63
72689;BME280;61053;52.166;4.506;2022-09-17T11:41:52;101600.56;;;27.18;24.26
72689;BME280;61053;52.166;4.506;2022-09-17T11:44:26;101621.31;;;27.90;23.97
72689;BME280;61053;52.166;4.506;2022-09-17T11:47:29;101616.66;;;27.49;24.98
72689;BME280;61053;52.166;4.506;2022-09-17T11:56:02;101610.19;;;28.87;23.89
72689;BME280;61053;52.166;4.506;2022-09-17T11:59:04;101611.84;;;30.58;22.65
72689;BME280;61053;52.166;4.506;2022-09-17T12:01:55;101610.22;;;28.18;24.00
72689;BME280;61053;52.166;4.506;2022-09-17T12:07:31;101612.25;;;29.64;22.58
72689;BME280;61053;52.166;4.506;2022-09-17T12:16:07;101604.69;;;28.93;22.12
72689;BME280;61053;52.166;4.506;2022-09-17T12:18:58;101607.41;;;29.53;20.97
72689;BME280;61053;52.166;4.506;2022-09-17T12:24:27;101618.50;;;30.82;21.27
72689;BME280;61053;52.166;4.506;2022-09-17T12:30:21;101621.69;;;30.47;21.93
72689;BME280;61053;52.166;4.506;2022-09-17T12:36:02;101608.38;;;31.01;21.71
72689;BME280;61053;52.166;4.506;2022-09-17T12:45:19;101608.72;;;28.91;24.37
72689;BME280;61053;52.166;4.506;2022-09-17T13:00:12;101607.88;;;27.32;27.67
72689;BME280;61053;52.166;4.506;2022-09-17T13:03:01;101605.34;;;28.75;25.70
72689;BME280;61053;52.166;4.506;2022-09-17T13:08:34;101612.06;;;24.48;33.38
72689;BME280;61053;52.166;4.506;2022-09-17T13:14:39;101608.16;;;24.11;33.38
72689;BME280;61053;52.166;4.506;2022-09-17T13:20:36;101612.78;;;23.54;31.11
72689;BME280;61053;52.166;4.506;2022-09-17T13:23:12;101613.84;;;25.24;28.97
72689;BME280;61053;52.166;4.506;2022-09-17T13:25:51;101616.81;;;25.67;28.75
72689;BME280;61053;52.166;4.506;2022-09-17T13:28:19;101614.44;;;26.09;28.33
72689;BME280;61053;52.166;4.506;2022-09-17T13:30:59;101622.09;;;23.85;32.46
72689;BME280;61053;52.166;4.506;2022-09-17T13:33:57;101624.63;;;21.27;38.20
72689;BME280;61053;52.166;4.506;2022-09-17T13:36:48;101632.94;;;20.82;41.61
72689;BME280;61053;52.166;4.506;2022-09-17T13:39:46;101623.09;;;23.11;36.74
72689;BME280;61053;52.166;4.506;2022-09-17T13:42:33;101620.69;;;26.39;30.51
72689;BME280;61053;52.166;4.506;2022-09-17T13:45:13;101617.28;;;26.37;28.60
72689;BME280;61053;52.166;4.506;2022-09-17T13:48:03;101626.81;;;24.61;28.74
72689;BME280;61053;52.166;4.506;2022-09-17T13:50:33;101629.19;;;22.64;30.75
72689;BME280;61053;52.166;4.506;2022-09-17T13:55:48;101636.06;;;23.73;31.07
72689;BME280;61053;52.166;4.506;2022-09-17T13:58:25;101642.72;;;22.31;33.92
72689;BME280;61053;52.166;4.506;2022-09-17T14:00:59;101642.59;;;22.41;34.65
72689;BME280;61053;52.166;4.506;2022-09-17T14:16:33;101632.31;;;20.24;37.91
72689;BME280;61053;52.166;4.506;2022-09-17T14:24:44;101644.50;;;19.46;37.47
72689;BME280;61053;52.166;4.506;2022-09-17T14:35:45;101649.69;;;20.77;35.98
72689;BME280;61053;52.166;4.506;2022-09-17T14:38:37;101645.34;;;20.21;36.55
72689;BME280;61053;52.166;4.506;2022-09-17T14:43:53;101650.22;;;19.23;39.14
72689;BME280;61053;52.166;4.506;2022-09-17T14:46:37;101644.50;;;19.26;39.44
72689;BME280;61053;52.166;4.506;2022-09-17T14:49:26;101639.75;;;19.48;39.13
72689;BME280;61053;52.166;4.506;2022-09-17T14:51:57;101641.25;;;18.74;40.55
72689;BME280;61053;52.166;4.506;2022-09-17T14:54:30;101656.34;;;18.57;40.29
72689;BME280;61053;52.166;4.506;2022-09-17T14:57:09;101653.63;;;18.57;39.94
72689;BME280;61053;52.166;4.506;2022-09-17T14:59:52;101657.31;;;18.46;39.67
72689;BME280;61053;52.166;4.506;2022-09-17T15:02:38;101645.72;;;18.85;39.33
72689;BME280;61053;52.166;4.506;2022-09-17T15:05:30;101657.72;;;18.42;41.48
72689;BME280;61053;52.166;4.506;2022-09-17T15:11:06;101646.63;;;18.45;41.89
72689;BME280;61053;52.166;4.506;2022-09-17T15:13:58;101647.66;;;17.93;42.48
72689;BME280;61053;52.166;4.506;2022-09-17T15:16:25;101647.22;;;18.48;40.65
72689;BME280;61053;52.166;4.506;2022-09-17T15:18:59;101630.56;;;18.43;40.98
72689;BME280;61053;52.166;4.506;2022-09-17T15:21:44;101647.63;;;18.53;40.73
72689;BME280;61053;52.166;4.506;2022-09-17T15:26:51;101635.59;;;18.96;40.06
72689;BME280;61053;52.166;4.506;2022-09-17T15:29:23;101645.81;;;18.73;40.94
72689;BME280;61053;52.166;4.506;2022-09-17T15:31:55;101639.16;;;18.97;40.51
72689;BME280;61053;52.166;4.506;2022-09-17T15:34:21;101634.59;;;18.78;41.11
72689;BME280;61053;52.166;4.506;2022-09-17T15:37:16;101640.66;;;18.70;42.39
72689;BME280;61053;52.166;4.506;2022-09-17T15:39:51;101654.06;;;18.62;47.38
72689;BME280;61053;52.166;4.506;2022-09-17T15:42:29;101665.84;;;17.40;51.41
72689;BME280;61053;52.166;4.506;2022-09-17T15:45:20;101676.22;;;17.02;55.09
72689;BME280;61053;52.166;4.506;2022-09-17T15:47:57;101680.09;;;17.09;56.43
72689;BME280;61053;52.166;4.506;2022-09-17T15:50:26;101677.66;;;17.06;56.28
72689;BME280;61053;52.166;4.506;2022-09-17T15:55:40;101678.44;;;17.18;56.80
72689;BME280;61053;52.166;4.506;2022-09-17T16:08:55;101670.81;;;17.65;54.87
72689;BME280;61053;52.166;4.506;2022-09-17T16:11:30;101666.69;;;17.40;55.19
72689;BME280;61053;52.166;4.506;2022-09-17T16:14:03;101668.44;;;17.51;52.85
72689;BME280;61053;52.166;4.506;2022-09-17T16:16:33;101661.28;;;17.19;53.25
72689;BME280;61053;52.166;4.506;2022-09-17T16:19:00;101665.28;;;17.04;55.25
72689;BME280;61053;52.166;4.506;2022-09-17T16:21:29;101664.41;;;16.71;58.44
72689;BME280;61053;52.166;4.506;2022-09-17T16:23:55;101664.47;;;16.49;60.57
72689;BME280;61053;52.166;4.506;2022-09-17T16:26:24;101672.22;;;16.31;60.41
72689;BME280;61053;52.166;4.506;2022-09-17T16:28:58;101678.63;;;16.18;62.64
72689;BME280;61053;52.166;4.506;2022-09-17T16:31:29;101675.44;;;16.13;63.61
72689;BME280;61053;52.166;4.506;2022-09-17T16:33:54;101680.56;;;16.28;63.51
72689;BME280;61053;52.166;4.506;2022-09-17T16:36:20;101685.50;;;16.22;63.10
72689;BME280;61053;52.166;4.506;2022-09-17T16:38:46;101673.31;;;16.51;63.72
72689;BME280;61053;52.166;4.506;2022-09-17T16:41:12;101671.22;;;16.43;63.07
72689;BME280;61053;52.166;4.506;2022-09-17T16:43:38;101667.19;;;16.37;63.61